Time;durP1;ratioP1;P1;durP2;ratioP2;P2;SDS_P1;SDS_P2;PMS_P1;PMS_P2;Temp;Humidity;BMP_temperature;BMP_pressure;BME280_temperature;BME280_humidity;BME280_pressure;Samples;Min_cycle;Max_cycle;Signal;HPM_P1;HPM_P2
2023/11/18 00:18:34;;;;;;;5.05;4.07;;;;;;;;;;3611034;23;20517;-80
2023/11/18 00:21:01;;;;;;;6.00;5.40;;;;;;;;;;4929861;29;20075;-81
2023/11/18 00:23:29;;;;;;;13.15;5.47;;;;;;;;;;4950635;29;20035;-81
2023/11/18 00:25:55;;;;;;;6.13;5.43;;;;;;;;;;4969390;28;20050;-83
2023/11/18 00:28:21;;;;;;;6.28;5.65;;;;;;;;;;4968638;28;20039;-83
2023/11/18 00:30:47;;;;;;;11.65;6.20;;;;;;;;;;4979606;28;20024;-82
2023/11/18 00:33:13;;;;;;;6.35;5.75;;;;;;;;;;5037578;23;20125;-82
2023/11/18 00:35:39;;;;;;;8.15;6.78;;;;;;;;;;4998375;28;20047;-82
2023/11/18 00:38:06;;;;;;;11.38;10.30;;;;;;;;;;4998794;28;20086;-83
2023/11/18 00:40:32;;;;;;;12.15;10.65;;;;;;;;;;4981496;28;20058;-81
2023/11/18 00:42:58;;;;;;;12.27;9.30;;;;;;;;;;4996201;28;20038;-83
2023/11/18 00:45:24;;;;;;;12.50;11.20;;;;;;;;;;4977869;28;20054;-84
2023/11/18 00:47:50;;;;;;;12.15;9.93;;;;;;;;;;4996606;28;20534;-85
2023/11/18 00:50:17;;;;;;;13.80;8.93;;;;;;;;;;4997392;28;20061;-84
2023/11/18 00:52:44;;;;;;;9.70;8.80;;;;;;;;;;5007212;28;20015;-84
2023/11/18 00:55:13;;;;;;;9.10;6.88;;;;;;;;;;5157358;23;20051;-84
2023/11/18 00:57:39;;;;;;;12.90;9.83;;;;;;;;;;5053383;23;20063;-81
2023/11/18 01:00:07;;;;;;;11.30;8.38;;;;;;;;;;4980405;28;20031;-82
2023/11/18 01:02:33;;;;;;;11.00;7.50;;;;;;;;;;4991680;28;20019;-82
2023/11/18 01:04:58;;;;;;;12.63;10.80;;;;;;;;;;4973982;28;20043;-82
2023/11/18 01:07:24;;;;;;;10.98;9.90;;;;;;;;;;4954312;28;20046;-81
2023/11/18 01:09:51;;;;;;;14.65;9.55;;;;;;;;;;4982813;28;20745;-81
2023/11/18 01:12:17;;;;;;;13.80;9.30;;;;;;;;;;4985064;28;20019;-82
2023/11/18 01:14:43;;;;;;;9.30;8.43;;;;;;;;;;4986003;28;20059;-81
2023/11/18 01:17:09;;;;;;;16.23;8.52;;;;;;;;;;4972612;28;20039;-81
2023/11/18 01:19:35;;;;;;;15.40;9.70;;;;;;;;;;4976135;23;20108;-81
2023/11/18 01:22:05;;;;;;;10.40;9.38;;;;;;;;;;4930575;29;20072;-82
2023/11/18 01:24:32;;;;;;;10.57;9.63;;;;;;;;;;5173307;23;20043;-82
2023/11/18 01:29:41;;;;;;;13.98;10.07;;;;;;;;;;4977445;28;20039;-83
2023/11/18 01:32:11;;;;;;;14.02;10.93;;;;;;;;;;4961807;28;20049;-83
2023/11/18 01:34:40;;;;;;;13.43;9.98;;;;;;;;;;4957988;28;20038;-81
2023/11/18 01:37:09;;;;;;;9.57;8.60;;;;;;;;;;4958792;29;20095;-83
2023/11/18 01:39:35;;;;;;;13.10;8.27;;;;;;;;;;4957733;29;20074;-81
2023/11/18 01:42:04;;;;;;;13.82;11.07;;;;;;;;;;4975657;29;20031;-82
2023/11/18 01:44:30;;;;;;;11.75;8.70;;;;;;;;;;4954982;29;20039;-82
2023/11/18 01:46:58;;;;;;;14.45;10.80;;;;;;;;;;4951061;29;20043;-82
2023/11/18 01:49:24;;;;;;;14.95;10.90;;;;;;;;;;4951700;29;20074;-82
2023/11/18 01:51:51;;;;;;;12.38;9.43;;;;;;;;;;4962576;28;20019;-82
2023/11/18 01:54:19;;;;;;;19.35;14.10;;;;;;;;;;4975859;29;20019;-81
2023/11/18 01:56:47;;;;;;;11.95;10.73;;;;;;;;;;4977939;28;20091;-82
2023/11/18 01:59:19;;;;;;;18.95;13.85;;;;;;;;;;4929562;29;20058;-81
2023/11/18 02:01:49;;;;;;;12.63;9.95;;;;;;;;;;4945342;29;20051;-81
2023/11/18 02:04:16;;;;;;;15.23;10.50;;;;;;;;;;4974660;29;20061;-82
2023/11/18 02:06:42;;;;;;;14.20;12.90;;;;;;;;;;4975295;29;20058;-82
2023/11/18 02:09:08;;;;;;;15.85;14.20;;;;;;;;;;4973442;29;20038;-82
2023/11/18 02:11:41;;;;;;;19.23;15.13;;;;;;;;;;4959381;29;20462;-81
2023/11/18 02:14:11;;;;;;;15.02;13.45;;;;;;;;;;4975865;29;20075;-83
2023/11/18 02:16:38;;;;;;;28.85;16.00;;;;;;;;;;4959524;28;20031;-82
2023/11/18 02:19:05;;;;;;;17.15;10.98;;;;;;;;;;4959443;28;20058;-82
2023/11/18 02:21:33;;;;;;;13.05;11.35;;;;;;;;;;4943047;29;20051;-81
2023/11/18 02:23:59;;;;;;;11.30;10.15;;;;;;;;;;4960047;28;20027;-81
2023/11/18 02:26:25;;;;;;;12.48;11.18;;;;;;;;;;4977953;28;20095;-83
2023/11/18 05:44:41;;;;;;;12.95;8.25;;;;;;;;;;4146309;23;20059;-75
2023/11/18 05:47:07;;;;;;;10.82;9.80;;;;;;;;;;4943220;29;20051;-75
2023/11/18 05:49:33;;;;;;;12.90;10.05;;;;;;;;;;4949243;28;20053;-75
2023/11/18 05:52:00;;;;;;;9.60;6.85;;;;;;;;;;4951379;29;20498;-74
2023/11/18 05:54:26;;;;;;;7.05;6.20;;;;;;;;;;4951230;29;20035;-75
2023/11/18 05:56:53;;;;;;;5.53;4.65;;;;;;;;;;4951603;29;20062;-75
2023/11/18 05:59:19;;;;;;;4.78;4.38;;;;;;;;;;4951082;29;20428;-77
2023/11/18 06:01:47;;;;;;;6.50;5.10;;;;;;;;;;4931507;29;20414;-74
2023/11/18 06:04:13;;;;;;;6.07;4.40;;;;;;;;;;4932299;29;20043;-73
2023/11/18 06:06:39;;;;;;;4.68;4.35;;;;;;;;;;4927411;29;20090;-74
2023/11/18 06:09:09;;;;;;;6.10;4.90;;;;;;;;;;4934347;29;20548;-72
2023/11/18 06:11:35;;;;;;;5.85;4.47;;;;;;;;;;4933870;29;20047;-72
2023/11/18 06:14:01;;;;;;;5.10;4.60;;;;;;;;;;4933952;29;20441;-73
2023/11/18 06:16:27;;;;;;;5.00;4.57;;;;;;;;;;4952914;28;20039;-76
2023/11/18 06:18:53;;;;;;;4.53;4.13;;;;;;;;;;4938792;29;20105;-75
2023/11/18 06:21:30;;;;;;;7.93;4.68;;;;;;;;;;4956995;29;20051;-75
2023/11/18 06:23:56;;;;;;;3.92;3.60;;;;;;;;;;4923397;29;20043;-74
2023/11/18 06:26:24;;;;;;;5.82;3.35;;;;;;;;;;4935989;29;20420;-74
2023/11/18 06:28:50;;;;;;;5.82;4.00;;;;;;;;;;4954891;29;20209;-75
2023/11/18 06:31:17;;;;;;;3.95;3.60;;;;;;;;;;4953540;29;20138;-74
2023/11/18 06:33:43;;;;;;;9.63;3.60;;;;;;;;;;4954582;29;20200;-72
2023/11/18 06:36:14;;;;;;;3.58;3.28;;;;;;;;;;4955086;29;20199;-74
2023/11/18 06:38:41;;;;;;;5.25;3.85;;;;;;;;;;4954994;29;20043;-76
2023/11/18 06:41:16;;;;;;;3.97;3.67;;;;;;;;;;4954903;29;20050;-75
2023/11/18 06:43:54;;;;;;;2.65;2.17;;;;;;;;;;4954367;28;20063;-77
2023/11/18 06:46:21;;;;;;;5.50;3.47;;;;;;;;;;4954988;29;20131;-74
2023/11/18 06:48:49;;;;;;;2.13;1.83;;;;;;;;;;4954881;29;20043;-77
2023/11/18 06:51:15;;;;;;;6.05;3.35;;;;;;;;;;4955167;29;20055;-74
2023/11/18 06:53:45;;;;;;;3.75;3.47;;;;;;;;;;4937907;29;20050;-74
2023/11/18 06:56:11;;;;;;;3.65;3.35;;;;;;;;;;4953870;29;20506;-73
2023/11/18 06:58:37;;;;;;;7.30;3.70;;;;;;;;;;4955888;29;20388;-76
2023/11/18 07:01:05;;;;;;;7.97;4.03;;;;;;;;;;4953921;29;20039;-77
2023/11/18 07:03:31;;;;;;;4.00;3.70;;;;;;;;;;4954381;29;20129;-75
2023/11/18 07:05:57;;;;;;;4.25;3.85;;;;;;;;;;4954675;29;20187;-77
2023/11/18 07:08:24;;;;;;;3.63;3.33;;;;;;;;;;4951708;29;20134;-73
2023/11/18 07:10:50;;;;;;;4.00;3.38;;;;;;;;;;4952408;29;20541;-77
2023/11/18 07:13:16;;;;;;;4.10;3.78;;;;;;;;;;4954090;29;20054;-74
2023/11/18 07:15:42;;;;;;;9.80;3.83;;;;;;;;;;4954222;29;20513;-74
2023/11/18 07:18:09;;;;;;;4.03;3.35;;;;;;;;;;4936647;29;20476;-73
2023/11/18 07:20:35;;;;;;;6.18;3.72;;;;;;;;;;4953956;29;20043;-73
2023/11/18 07:23:01;;;;;;;4.20;3.80;;;;;;;;;;4957895;29;20051;-79
2023/11/18 07:25:27;;;;;;;4.18;3.42;;;;;;;;;;4963925;29;20101;-81
2023/11/18 07:27:53;;;;;;;3.95;3.55;;;;;;;;;;4958245;28;20043;-78
2023/11/18 07:30:20;;;;;;;3.78;3.45;;;;;;;;;;4963222;29;20070;-79
2023/11/18 07:32:46;;;;;;;4.65;3.42;;;;;;;;;;4963303;29;20035;-79
2023/11/18 07:35:12;;;;;;;6.57;3.08;;;;;;;;;;4959194;29;20043;-77
2023/11/18 07:37:38;;;;;;;8.45;4.20;;;;;;;;;;5183655;23;20038;-76
2023/11/18 07:40:05;;;;;;;5.05;3.40;;;;;;;;;;4961062;28;20042;-75
2023/11/18 07:42:34;;;;;;;5.45;3.67;;;;;;;;;;4961700;28;20043;-74
2023/11/18 07:45:03;;;;;;;10.90;7.35;;;;;;;;;;4955673;28;20187;-74
2023/11/18 07:47:32;;;;;;;4.88;4.25;;;;;;;;;;4972683;28;20236;-75
2023/11/18 07:49:59;;;;;;;6.25;3.75;;;;;;;;;;4973660;28;20059;-77
2023/11/18 07:52:27;;;;;;;5.38;4.03;;;;;;;;;;4973546;28;20030;-79
2023/11/18 07:54:53;;;;;;;3.80;3.40;;;;;;;;;;4955899;28;20414;-73
2023/11/18 07:57:19;;;;;;;4.60;4.15;;;;;;;;;;4974335;28;20043;-77
2023/11/18 07:59:46;;;;;;;4.47;4.07;;;;;;;;;;4956522;28;20050;-76
2023/11/18 08:02:14;;;;;;;3.67;3.38;;;;;;;;;;4973669;28;20106;-81
2023/11/18 08:04:41;;;;;;;5.70;4.78;;;;;;;;;;4975846;28;20046;-80
2023/11/18 08:12:38;;;;;;;6.57;4.10;;;;;;;;;;6053735;23;20021;-75
2023/11/18 08:15:09;;;;;;;6.45;3.50;;;;;;;;;;5539073;23;20059;-82
2023/11/18 08:20:30;;;;;;;10.10;3.35;;;;;;;;;;5825982;23;20241;-77
2023/11/18 08:25:40;;;;;;;5.05;3.40;;;;;;;;;;5708379;23;20006;-74
2023/11/18 08:39:37;;;;;;;4.65;3.88;;;;;;;;;;5362348;23;20125;-83
2023/11/18 08:42:03;;;;;;;5.07;3.97;;;;;;;;;;4986492;28;20055;-83
2023/11/18 08:44:29;;;;;;;4.82;3.60;;;;;;;;;;4985351;28;20516;-83
2023/11/18 08:46:57;;;;;;;4.72;3.83;;;;;;;;;;4998040;28;20162;-83
2023/11/18 08:49:33;;;;;;;5.32;3.70;;;;;;;;;;5078602;23;20076;31
2023/11/18 08:51:59;;;;;;;5.03;3.92;;;;;;;;;;5016869;23;20090;-80
2023/11/18 08:54:36;;;;;;;5.95;3.90;;;;;;;;;;5171048;23;20067;-83
2023/11/18 08:57:19;;;;;;;4.28;3.88;;;;;;;;;;5058502;23;20261;-79
2023/11/18 09:00:42;;;;;;;6.72;3.67;;;;;;;;;;4930086;29;20059;-82
2023/11/18 09:03:01;;;;;;;3.95;3.60;;;;;;;;;;4938740;29;20036;-82
2023/11/18 09:05:29;;;;;;;;;;;;;;;;;;4954435;29;20062;-80
2023/11/18 09:07:57;;;;;;;5.45;4.22;;;;;;;;;;4954288;29;20020;-81
2023/11/18 14:02:31;;;;;;;35.67;14.88;;;;;;;;;;1435925;26;20043;-80
2023/11/18 14:04:58;;;;;;;8.07;7.40;;;;;;;;;;4967857;28;20078;-80
2023/11/18 14:07:24;;;;;;;9.55;7.97;;;;;;;;;;4972251;28;20039;-77
2023/11/18 14:09:54;;;;;;;18.35;5.75;;;;;;;;;;4954300;28;20065;-76
2023/11/18 14:12:22;;;;;;;5.82;5.32;;;;;;;;;;4969916;28;20142;-73
2023/11/18 14:14:49;;;;;;;10.93;7.97;;;;;;;;;;4971682;28;20050;-81
2023/11/18 14:17:16;;;;;;;21.30;10.82;;;;;;;;;;4976625;28;20066;-80
2023/11/18 14:19:42;;;;;;;7.10;6.40;;;;;;;;;;4971952;28;20066;-81
2023/11/18 14:22:09;;;;;;;6.97;6.38;;;;;;;;;;4960524;28;20393;-81
2023/11/18 14:24:35;;;;;;;16.23;8.60;;;;;;;;;;4961188;28;20035;-82
2023/11/18 14:27:01;;;;;;;7.28;4.15;;;;;;;;;;4962153;28;20042;-80
2023/11/18 14:29:28;;;;;;;7.10;4.53;;;;;;;;;;4981268;28;20074;-81
2023/11/18 14:31:54;;;;;;;16.83;7.78;;;;;;;;;;4985429;28;20034;-81
2023/11/18 14:34:20;;;;;;;7.35;6.43;;;;;;;;;;4977435;28;20069;-77
2023/11/18 14:36:46;;;;;;;9.80;5.90;;;;;;;;;;4954722;28;20047;-80
2023/11/18 14:39:17;;;;;;;33.38;17.63;;;;;;;;;;4929829;28;20417;-81
2023/11/18 14:41:43;;;;;;;;;;;;;;;;;;4979974;28;20113;-80
2023/11/18 14:44:09;;;;;;;16.15;9.82;;;;;;;;;;4991200;28;19921;-79
2023/11/18 14:46:38;;;;;;;18.95;9.52;;;;;;;;;;4989412;28;20061;-82
2023/11/18 14:49:05;;;;;;;23.48;11.93;;;;;;;;;;4955541;28;20054;-80
2023/11/18 14:51:31;;;;;;;10.02;7.80;;;;;;;;;;4986546;28;20035;-82
2023/11/18 14:53:58;;;;;;;18.58;10.48;;;;;;;;;;4986981;28;20138;-81
2023/11/18 14:56:24;;;;;;;11.02;7.88;;;;;;;;;;4967832;28;20042;-81
2023/11/18 14:58:50;;;;;;;18.38;10.55;;;;;;;;;;4982380;28;20053;-81
2023/11/18 15:01:18;;;;;;;11.80;8.25;;;;;;;;;;4985019;28;20509;-81
2023/11/18 15:03:45;;;;;;;11.48;8.13;;;;;;;;;;4983661;28;20122;-80
2023/11/18 15:06:12;;;;;;;22.38;11.85;;;;;;;;;;4966752;28;20529;-80
2023/11/18 15:08:41;;;;;;;20.08;10.90;;;;;;;;;;4983452;28;20045;-80
2023/11/18 15:11:07;;;;;;;27.25;12.43;;;;;;;;;;4982652;28;20109;-80
2023/11/18 15:13:33;;;;;;;25.15;12.98;;;;;;;;;;4966472;28;20027;-80
2023/11/18 15:15:59;;;;;;;14.05;11.10;;;;;;;;;;4983571;28;20043;-81
2023/11/18 15:18:25;;;;;;;18.88;8.55;;;;;;;;;;4984144;28;20047;-82
2023/11/18 15:20:52;;;;;;;35.67;10.10;;;;;;;;;;4985791;28;20050;-81
2023/11/18 15:23:21;;;;;;;19.67;10.57;;;;;;;;;;4983406;28;20039;-80
2023/11/18 15:25:49;;;;;;;4.25;3.78;;;;;;;;;;4986143;28;20110;-82
2023/11/18 15:28:17;;;;;;;14.88;11.32;;;;;;;;;;4973831;28;20118;-80
2023/11/18 15:30:46;;;;;;;17.27;8.20;;;;;;;;;;4992169;28;20054;-80
2023/11/18 15:33:15;;;;;;;15.98;11.15;;;;;;;;;;4990768;28;20067;-82
2023/11/18 15:35:41;;;;;;;21.20;8.52;;;;;;;;;;4992158;28;20081;-79
2023/11/18 15:38:10;;;;;;;12.25;7.70;;;;;;;;;;4974902;28;20039;-80
2023/11/18 15:40:36;;;;;;;48.55;7.43;;;;;;;;;;4991150;28;20053;-80
2023/11/18 15:43:05;;;;;;;19.75;9.90;;;;;;;;;;4992477;28;20058;-80
2023/11/18 15:45:35;;;;;;;12.30;9.15;;;;;;;;;;4973680;29;20039;-82
2023/11/18 15:48:04;;;;;;;13.93;8.68;;;;;;;;;;4974145;28;20039;-80
2023/11/18 15:50:31;;;;;;;28.75;13.90;;;;;;;;;;4992575;28;20085;-82
2023/11/18 15:52:57;;;;;;;32.67;15.77;;;;;;;;;;4973896;28;20035;-82
2023/11/18 15:55:24;;;;;;;29.65;15.73;;;;;;;;;;4991414;28;20042;-82
2023/11/18 15:57:54;;;;;;;36.13;16.50;;;;;;;;;;4993656;28;20031;-81
2023/11/18 16:00:20;;;;;;;63.50;23.15;;;;;;;;;;4990716;28;20046;-82
2023/11/18 16:02:48;;;;;;;51.67;22.85;;;;;;;;;;4991230;28;20035;-83
2023/11/18 16:05:17;;;;;;;34.88;18.27;;;;;;;;;;4984267;28;20046;-83
2023/11/18 16:07:45;;;;;;;32.97;17.27;;;;;;;;;;4972271;28;20057;-80
2023/11/18 16:10:17;;;;;;;47.95;20.92;;;;;;;;;;4994296;28;20080;-81
2023/11/18 16:12:51;;;;;;;16.45;10.38;;;;;;;;;;4981912;28;20031;-78
2023/11/18 16:15:19;;;;;;;45.53;20.73;;;;;;;;;;5026099;23;20023;-72
2023/11/18 16:17:46;;;;;;;23.63;12.90;;;;;;;;;;5287906;23;20059;-79
2023/11/18 16:20:15;;;;;;;91.93;41.58;;;;;;;;;;5323268;23;20123;-81
2023/11/18 16:22:42;;;;;;;37.55;16.48;;;;;;;;;;5065897;23;20041;-79
2023/11/18 16:27:58;;;;;;;35.28;15.52;;;;;;;;;;5242370;23;20046;-79
2023/11/18 16:30:24;;;;;;;31.65;18.05;;;;;;;;;;4981446;28;20054;-81
2023/11/18 16:32:51;;;;;;;34.83;21.63;;;;;;;;;;4982651;28;20034;-79
2023/11/18 16:35:17;;;;;;;39.55;20.65;;;;;;;;;;4977116;28;20054;-81
2023/11/18 16:37:44;;;;;;;46.00;20.25;;;;;;;;;;4985257;28;20094;-81
2023/11/18 16:40:13;;;;;;;40.42;19.80;;;;;;;;;;4956560;28;20583;-79
2023/11/18 16:42:46;;;;;;;36.95;18.67;;;;;;;;;;4975399;28;20054;-82
2023/11/18 16:45:13;;;;;;;42.30;18.98;;;;;;;;;;4998628;28;20031;-80
2023/11/18 16:47:39;;;;;;;45.00;17.52;;;;;;;;;;4984640;28;20086;-82
2023/11/18 16:50:05;;;;;;;36.80;16.77;;;;;;;;;;4992455;28;20043;-81
2023/11/18 16:52:32;;;;;;;28.58;15.32;;;;;;;;;;5002804;28;20051;-81
2023/11/18 16:54:57;;;;;;;15.88;7.20;;;;;;;;;;5010006;28;20039;-82
2023/11/18 16:57:25;;;;;;;78.15;34.83;;;;;;;;;;4999365;28;20043;-80
2023/11/18 16:59:51;;;;;;;27.70;13.75;;;;;;;;;;4997154;28;20043;-81
2023/11/18 17:02:22;;;;;;;16.60;11.32;;;;;;;;;;4972310;28;20054;-81
2023/11/18 17:04:48;;;;;;;36.85;15.18;;;;;;;;;;4979763;28;20065;-82
2023/11/18 17:07:14;;;;;;;32.80;15.35;;;;;;;;;;4992336;28;20026;-82
2023/11/18 17:09:40;;;;;;;37.30;14.70;;;;;;;;;;4973701;28;20078;-81
2023/11/18 17:12:06;;;;;;;48.17;15.55;;;;;;;;;;4973364;28;20056;-81
2023/11/18 17:14:32;;;;;;;36.65;16.52;;;;;;;;;;4995329;28;20053;-82
2023/11/18 17:16:58;;;;;;;31.70;17.45;;;;;;;;;;5014156;28;20042;-82
2023/11/18 17:19:24;;;;;;;37.85;17.88;;;;;;;;;;4983286;28;20042;-82
2023/11/18 17:21:51;;;;;;;72.93;30.17;;;;;;;;;;4983736;28;20036;-82
2023/11/18 17:24:17;;;;;;;61.17;27.23;;;;;;;;;;4997954;28;20047;-84
2023/11/18 17:26:43;;;;;;;60.63;25.85;;;;;;;;;;4957789;29;20063;-81
2023/11/18 17:29:10;;;;;;;42.63;19.73;;;;;;;;;;4959821;29;20055;-83
2023/11/18 17:31:37;;;;;;;18.60;11.85;;;;;;;;;;4968477;28;20051;-82
2023/11/18 17:34:04;;;;;;;41.28;20.27;;;;;;;;;;4972839;28;20047;-79
2023/11/18 17:36:30;;;;;;;44.42;20.52;;;;;;;;;;4950811;29;20035;-80
2023/11/18 17:38:56;;;;;;;33.55;18.90;;;;;;;;;;4954788;29;20103;-80
2023/11/18 17:41:23;;;;;;;37.90;17.52;;;;;;;;;;4953518;29;20050;-78
2023/11/18 21:15:41;;;;;;;21.02;9.07;;;;;;;;;;3277553;26;20047;-79
2023/11/18 21:18:12;;;;;;;5.57;5.10;;;;;;;;;;4971964;28;20047;-80
2023/11/18 21:20:38;;;;;;;12.43;8.98;;;;;;;;;;4973576;28;20046;-79
2023/11/18 21:23:05;;;;;;;18.60;10.07;;;;;;;;;;4957523;28;20126;-79
2023/11/18 21:25:30;;;;;;;15.52;9.30;;;;;;;;;;4964210;28;20026;-75
2023/11/18 21:27:56;;;;;;;8.45;7.70;;;;;;;;;;4982383;28;20511;-79
2023/11/18 21:30:23;;;;;;;8.00;4.03;;;;;;;;;;4984311;28;20082;-75
2023/11/18 21:32:49;;;;;;;9.73;7.72;;;;;;;;;;4982537;28;20078;-80
2023/11/18 21:35:20;;;;;;;4.95;4.15;;;;;;;;;;4951732;29;20051;-80
2023/11/18 21:37:47;;;;;;;17.70;9.20;;;;;;;;;;4984376;28;20049;-80
2023/11/18 21:40:13;;;;;;;15.10;7.88;;;;;;;;;;4978477;28;20074;-80
2023/11/18 21:42:40;;;;;;;9.75;7.45;;;;;;;;;;4960312;28;20047;-81
2023/11/18 21:45:06;;;;;;;17.08;7.55;;;;;;;;;;4962872;28;20101;-81
2023/11/18 21:47:33;;;;;;;8.48;6.60;;;;;;;;;;4932241;28;20045;-82
2023/11/18 21:49:59;;;;;;;21.35;8.68;;;;;;;;;;4965757;28;20069;-80
2023/11/18 21:52:25;;;;;;;10.52;7.72;;;;;;;;;;4969729;28;20047;-82
2023/11/18 21:54:52;;;;;;;9.43;6.28;;;;;;;;;;4979693;28;20058;-78
2023/11/18 21:57:18;;;;;;;8.27;6.55;;;;;;;;;;4959471;28;20042;-79
2023/11/18 21:59:44;;;;;;;7.65;6.88;;;;;;;;;;4938717;28;20477;-78
2023/11/18 22:02:11;;;;;;;9.13;5.88;;;;;;;;;;4954166;28;20051;-79
2023/11/18 22:04:37;;;;;;;10.70;9.10;;;;;;;;;;4943343;28;20043;-81
2023/11/18 22:07:07;;;;;;;10.95;8.23;;;;;;;;;;4963152;28;20249;-80
2023/11/18 22:09:33;;;;;;;11.93;7.88;;;;;;;;;;4971085;28;20134;-81
2023/11/18 22:11:59;;;;;;;25.67;9.10;;;;;;;;;;4944545;28;20046;-81
2023/11/18 22:14:25;;;;;;;15.95;9.65;;;;;;;;;;4973354;28;20039;-79
2023/11/18 22:16:51;;;;;;;19.38;10.70;;;;;;;;;;4937848;28;20050;-79
2023/11/18 22:19:17;;;;;;;15.57;11.77;;;;;;;;;;4971027;28;20465;-78
2023/11/18 22:21:45;;;;;;;22.38;11.30;;;;;;;;;;4970770;28;20082;-78
2023/11/18 22:24:12;;;;;;;29.90;14.23;;;;;;;;;;4970593;28;20035;-78
2023/11/18 22:26:42;;;;;;;23.77;12.25;;;;;;;;;;4970879;28;20653;-79
2023/11/18 22:29:09;;;;;;;30.40;12.77;;;;;;;;;;4953558;28;20046;-79
2023/11/18 22:31:36;;;;;;;16.42;10.38;;;;;;;;;;4967499;28;20043;-79
2023/11/18 22:34:03;;;;;;;20.52;12.15;;;;;;;;;;4960540;28;20047;-78
2023/11/18 22:36:31;;;;;;;22.83;13.40;;;;;;;;;;4970830;28;20043;-79
2023/11/18 22:38:57;;;;;;;37.50;14.88;;;;;;;;;;4970950;28;20205;-78
2023/11/18 22:41:23;;;;;;;24.48;15.40;;;;;;;;;;4970748;28;20564;-78
2023/11/18 22:43:50;;;;;;;29.08;15.40;;;;;;;;;;4937554;28;20030;-79
2023/11/18 22:46:16;;;;;;;33.92;15.90;;;;;;;;;;4970705;28;20043;-79
2023/11/18 22:48:45;;;;;;;29.00;15.25;;;;;;;;;;4970989;28;20042;-79
2023/11/18 22:51:11;;;;;;;43.17;15.43;;;;;;;;;;4970689;28;20050;-78
2023/11/18 22:53:37;;;;;;;27.90;15.95;;;;;;;;;;4953379;28;20042;-77
2023/11/18 22:56:04;;;;;;;40.17;15.50;;;;;;;;;;4970338;28;20047;-78
2023/11/18 22:58:30;;;;;;;42.13;16.17;;;;;;;;;;4974203;28;20038;-80
2023/11/18 23:00:56;;;;;;;27.58;14.77;;;;;;;;;;4977803;28;20195;-79
2023/11/18 23:03:23;;;;;;;36.00;16.20;;;;;;;;;;4957239;28;20114;-77
2023/11/18 23:05:52;;;;;;;34.53;18.33;;;;;;;;;;4973760;28;20129;-79
2023/11/18 23:08:21;;;;;;;32.45;15.68;;;;;;;;;;4972495;28;20046;-80
2023/11/18 23:10:47;;;;;;;34.03;15.77;;;;;;;;;;4956347;28;20121;-79
2023/11/18 23:13:14;;;;;;;18.52;11.20;;;;;;;;;;4956432;28;20039;-79
2023/11/18 23:15:40;;;;;;;12.55;8.50;;;;;;;;;;4973342;28;20062;-79
2023/11/18 23:18:07;;;;;;;14.00;5.70;;;;;;;;;;4973544;28;20098;-80
2023/11/18 23:20:33;;;;;;;22.50;12.82;;;;;;;;;;4973949;28;20050;-79
2023/11/18 23:23:02;;;;;;;18.15;10.10;;;;;;;;;;4956591;28;20094;-79
2023/11/18 23:25:28;;;;;;;26.20;13.32;;;;;;;;;;4956344;28;20133;-78
2023/11/18 23:27:55;;;;;;;21.77;13.77;;;;;;;;;;4973493;28;20038;-77
2023/11/18 23:30:21;;;;;;;33.38;13.70;;;;;;;;;;4972311;28;20414;-78
2023/11/18 23:32:51;;;;;;;22.20;11.95;;;;;;;;;;4956664;28;20108;-78
2023/11/18 23:35:18;;;;;;;23.33;13.60;;;;;;;;;;4956085;28;20046;-78
2023/11/18 23:37:45;;;;;;;22.50;13.52;;;;;;;;;;4956614;28;20039;-78
2023/11/18 23:40:12;;;;;;;31.77;14.52;;;;;;;;;;4973575;28;20047;-78
2023/11/18 23:42:42;;;;;;;22.13;13.85;;;;;;;;;;4956921;28;20039;-78
2023/11/18 23:45:11;;;;;;;31.17;15.50;;;;;;;;;;4973327;28;20050;-78
2023/11/18 23:47:38;;;;;;;34.92;15.40;;;;;;;;;;4937342;28;20142;-78
2023/11/18 23:50:05;;;;;;;22.73;13.60;;;;;;;;;;4956287;28;20063;-77
2023/11/18 23:52:31;;;;;;;26.27;12.63;;;;;;;;;;4940291;28;20050;-77
2023/11/18 23:54:57;;;;;;;22.48;11.30;;;;;;;;;;4974292;28;20039;-78
2023/11/18 23:57:23;;;;;;;25.38;13.10;;;;;;;;;;4956199;28;20038;-77
2023/11/18 23:59:49;;;;;;;17.83;9.88;;;;;;;;;;4973833;28;20094;-78
